createdAt,value
2018-12-16T00:03:24.240Z,100610.72
2018-12-16T00:08:31.150Z,100601.48
2018-12-16T00:13:36.298Z,100597.25
2018-12-16T00:18:40.668Z,100582.34
2018-12-16T00:23:45.117Z,100582.64
2018-12-16T00:28:50.920Z,100577.14
2018-12-16T00:33:55.123Z,100564.55
2018-12-16T00:39:03.922Z,100555.70
2018-12-16T00:44:11.200Z,100548.72
2018-12-16T00:54:40.620Z,100542.75
2018-12-16T00:59:46.706Z,100532.50
2018-12-16T01:04:54.136Z,100525.30
2018-12-16T01:10:01.135Z,100531.91
2018-12-16T01:15:14.356Z,100533.48
2018-12-16T01:20:21.972Z,100531.80
2018-12-16T01:25:28.801Z,100525.01
2018-12-16T01:30:34.242Z,100528.33
2018-12-16T01:35:38.394Z,100523.80
2018-12-16T01:40:45.829Z,100521.20
2018-12-16T01:45:52.640Z,100505.55
2018-12-16T01:50:57.141Z,100504.87
2018-12-16T01:56:01.584Z,100488.17
2018-12-16T02:01:06.018Z,100486.73
2018-12-16T02:06:10.330Z,100482.20
2018-12-16T02:11:14.677Z,100476.09
2018-12-16T02:16:21.014Z,100475.02
2018-12-16T02:21:25.378Z,100474.81
2018-12-16T02:26:30.203Z,100460.48
2018-12-16T02:31:34.671Z,100446.32
2018-12-16T02:36:40.057Z,100434.27
2018-12-16T02:41:44.461Z,100422.42
2018-12-16T02:46:48.960Z,100403.54
2018-12-16T02:51:53.409Z,100404.63
2018-12-16T02:56:58.517Z,100398.50
2018-12-16T03:02:02.907Z,100394.64
2018-12-16T03:07:09.473Z,100391.23
2018-12-16T03:12:14.810Z,100376.11
2018-12-16T03:17:20.346Z,100370.61
2018-12-16T03:22:24.870Z,100362.87
2018-12-16T03:27:29.146Z,100356.30
2018-12-16T03:32:33.676Z,100341.84
2018-12-16T03:37:38.191Z,100336.47
2018-12-16T03:42:42.616Z,100336.39
2018-12-16T03:47:47.025Z,100327.61
2018-12-16T03:52:53.416Z,100315.69
2018-12-16T03:57:58.893Z,100305.86
2018-12-16T04:03:04.255Z,100299.55
2018-12-16T04:08:08.487Z,100279.56
2018-12-16T04:13:12.593Z,100270.85
2018-12-16T04:18:17.983Z,100261.70
2018-12-16T04:23:27.479Z,100254.42
2018-12-16T04:28:28.514Z,100257.92
2018-12-16T04:33:32.908Z,100260.69
2018-12-16T04:38:37.239Z,100256.84
2018-12-16T04:43:41.368Z,100250.30
2018-12-16T04:48:45.664Z,100244.63
2018-12-16T04:53:49.796Z,100240.92
2018-12-16T04:58:53.936Z,100219.06
2018-12-16T05:03:58.087Z,100209.75
2018-12-16T05:09:02.177Z,100204.45
2018-12-16T05:14:08.434Z,100207.64
2018-12-16T05:19:15.419Z,100205.09
2018-12-16T05:24:19.586Z,100211.65
2018-12-16T05:29:24.224Z,100221.66
2018-12-16T05:34:28.465Z,100215.95
2018-12-16T05:39:32.678Z,100206.20
2018-12-16T05:44:36.879Z,100197.50
2018-12-16T05:49:41.029Z,100194.95
2018-12-16T05:54:45.604Z,100192.25
2018-12-16T05:59:49.829Z,100198.48
2018-12-16T06:04:55.141Z,100187.52
2018-12-16T06:09:59.425Z,100165.10
2018-12-16T06:15:04.171Z,100160.97
2018-12-16T06:20:17.785Z,100166.06
2018-12-16T06:25:22.057Z,100155.30
2018-12-16T06:30:28.737Z,100141.30
2018-12-16T06:35:34.273Z,100132.88
2018-12-16T06:40:40.271Z,100127.32
2018-12-16T06:45:45.080Z,100120.72
2018-12-16T06:50:49.594Z,100126.20
2018-12-16T06:55:54.085Z,100123.82
2018-12-16T07:00:58.914Z,100118.23
2018-12-16T07:06:03.307Z,100111.56
2018-12-16T07:11:08.653Z,100127.61
2018-12-16T07:16:13.023Z,100117.44
2018-12-16T07:21:18.438Z,100120.12
2018-12-16T07:26:23.042Z,100131.59
2018-12-16T07:31:27.724Z,100128.84
2018-12-16T07:36:32.388Z,100115.97
2018-12-16T07:41:37.171Z,100124.41
2018-12-16T07:46:41.524Z,100122.22
2018-12-16T07:51:45.989Z,100120.42
2018-12-16T07:56:50.510Z,100122.42
2018-12-16T08:01:55.705Z,100117.19
2018-12-16T08:07:00.424Z,100101.00
2018-12-16T08:12:05.051Z,100086.52
2018-12-16T08:17:10.506Z,100089.86
2018-12-16T08:22:15.906Z,100092.30
2018-12-16T08:27:20.224Z,100097.80
2018-12-16T08:32:24.839Z,100101.17
2018-12-16T08:37:29.104Z,100091.39
2018-12-16T08:42:33.475Z,100076.15
2018-12-16T08:47:38.133Z,100069.73
2018-12-16T08:52:42.302Z,100067.52
2018-12-16T08:57:46.651Z,100071.11
2018-12-16T09:02:51.358Z,100072.83
2018-12-16T09:07:55.788Z,100062.12
2018-12-16T09:13:00.619Z,100071.53
2018-12-16T09:18:05.184Z,100075.17
2018-12-16T09:23:09.507Z,100062.67
2018-12-16T09:28:13.962Z,100060.89
2018-12-16T09:33:18.485Z,100048.73
2018-12-16T09:38:23.069Z,100058.39
2018-12-16T09:43:27.336Z,100053.27
2018-12-16T09:48:31.786Z,100041.08
2018-12-16T09:53:37.165Z,100036.19
2018-12-16T09:58:41.407Z,100046.72
2018-12-16T10:03:45.821Z,100042.27
2018-12-16T10:08:50.214Z,100029.44
2018-12-16T10:13:54.555Z,100023.55
2018-12-16T10:18:58.974Z,100011.56
2018-12-16T10:24:03.385Z,100007.98
2018-12-16T10:29:08.127Z,100004.73
2018-12-16T10:34:12.394Z,99996.38
2018-12-16T10:39:21.909Z,99992.49
2018-12-16T10:44:26.602Z,99978.27
2018-12-16T10:49:31.029Z,99964.64
2018-12-16T10:54:36.213Z,99961.23
2018-12-16T10:59:42.893Z,99955.13
2018-12-16T11:04:47.533Z,99949.49
2018-12-16T11:15:12.497Z,99949.77
2018-12-16T11:20:22.392Z,99937.05
2018-12-16T11:25:27.804Z,99930.22
2018-12-16T11:30:32.202Z,99929.43
2018-12-16T11:35:37.077Z,99916.52
2018-12-16T11:40:42.106Z,99912.42
2018-12-16T11:45:46.537Z,99907.02
2018-12-16T11:50:51.657Z,99905.13
2018-12-16T11:55:56.123Z,99896.94
2018-12-16T12:01:00.981Z,99893.38
2018-12-16T12:06:08.114Z,99888.09
2018-12-16T12:11:12.507Z,99884.73
2018-12-16T12:16:16.919Z,99882.31
2018-12-16T12:21:21.451Z,99864.27
2018-12-16T12:26:28.940Z,99857.68
2018-12-16T12:31:33.424Z,99849.88
2018-12-16T12:36:38.117Z,99846.73
2018-12-16T12:41:42.646Z,99846.06
2018-12-16T12:46:47.284Z,99845.73
2018-12-16T12:51:52.918Z,99848.78
2018-12-16T12:56:58.474Z,99843.22
2018-12-16T13:02:03.649Z,99835.17
2018-12-16T13:07:08.302Z,99832.03
2018-12-16T13:12:13.150Z,99830.58
2018-12-16T13:17:17.481Z,99838.17
2018-12-16T13:22:21.724Z,99831.01
2018-12-16T13:27:26.027Z,99829.02
2018-12-16T13:32:30.468Z,99837.12
2018-12-16T13:37:34.816Z,99839.67
2018-12-16T13:42:40.052Z,99840.35
2018-12-16T13:47:45.126Z,99838.48
2018-12-16T13:52:49.790Z,99845.30
2018-12-16T13:57:58.319Z,99851.90
2018-12-16T14:03:02.630Z,99859.13
2018-12-16T14:08:15.888Z,99865.52
2018-12-16T14:13:20.300Z,99856.12
2018-12-16T14:18:24.594Z,99869.40
2018-12-16T14:23:30.583Z,99862.80
2018-12-16T14:28:35.140Z,99860.73
2018-12-16T14:33:39.384Z,99861.49
2018-12-16T14:38:43.968Z,99859.94
2018-12-16T14:43:48.174Z,99862.73
2018-12-16T14:48:52.348Z,99862.78
2018-12-16T14:53:56.593Z,99855.09
2018-12-16T14:59:00.820Z,99869.03
2018-12-16T15:04:05.127Z,99860.05
2018-12-16T15:09:18.995Z,99864.94
2018-12-16T15:14:23.289Z,99856.25
2018-12-16T15:19:27.511Z,99849.77
2018-12-16T15:24:31.644Z,99851.08
2018-12-16T15:29:44.539Z,99857.91
2018-12-16T15:34:48.858Z,99856.13
2018-12-16T15:39:52.976Z,99870.69
2018-12-16T15:44:57.561Z,99861.02
2018-12-16T15:50:02.719Z,99854.71
2018-12-16T15:55:09.845Z,99860.75
2018-12-16T16:00:16.353Z,99874.20
2018-12-16T16:05:20.627Z,99875.67
2018-12-16T16:10:25.101Z,99880.36
2018-12-16T16:15:29.427Z,99884.70
2018-12-16T16:20:33.714Z,99880.96
2018-12-16T16:25:38.184Z,99880.73
2018-12-16T16:30:42.419Z,99885.08
2018-12-16T16:35:46.769Z,99887.34
2018-12-16T16:40:51.881Z,99885.63
2018-12-16T16:45:56.191Z,99885.08
2018-12-16T16:51:00.409Z,99887.92
2018-12-16T16:56:04.909Z,99902.19
2018-12-16T17:01:09.238Z,99898.82
2018-12-16T17:06:14.535Z,99906.78
2018-12-16T17:11:19.604Z,99902.86
2018-12-16T17:16:24.308Z,99905.23
2018-12-16T17:21:29.583Z,99906.11
2018-12-16T17:26:34.344Z,99901.37
2018-12-16T17:31:39.338Z,99912.01
2018-12-16T17:36:43.763Z,99915.64
2018-12-16T17:41:48.045Z,99916.95
2018-12-16T17:46:52.577Z,99924.84
2018-12-16T17:51:57.320Z,99924.59
2018-12-16T17:57:01.779Z,99927.44
2018-12-16T18:02:07.102Z,99934.36
2018-12-16T18:07:12.664Z,99937.81
2018-12-16T18:12:16.938Z,99935.08
2018-12-16T18:17:21.445Z,99939.92
2018-12-16T18:22:25.817Z,99936.27
2018-12-16T18:27:30.558Z,99941.55
2018-12-16T18:32:35.357Z,99944.52
2018-12-16T18:37:39.958Z,99948.44
2018-12-16T18:42:49.703Z,99950.33
2018-12-16T18:47:54.122Z,99948.39
2018-12-16T18:52:58.639Z,99947.89
2018-12-16T18:58:03.453Z,99954.84
2018-12-16T19:03:11.384Z,99950.52
2018-12-16T19:08:16.983Z,99952.61
2018-12-16T19:13:22.188Z,99957.34
2018-12-16T19:18:27.779Z,99953.08
2018-12-16T19:23:32.234Z,99942.33
2018-12-16T19:28:37.031Z,99943.45
2018-12-16T19:33:41.527Z,99949.27
2018-12-16T19:38:45.649Z,99946.19
2018-12-16T19:43:49.881Z,99943.75
2018-12-16T19:48:54.276Z,99950.34
2018-12-16T19:53:58.737Z,99952.84
2018-12-16T19:59:04.792Z,99967.75
2018-12-16T20:04:15.182Z,99971.09
2018-12-16T20:09:21.305Z,99974.41
2018-12-16T20:14:25.657Z,99977.52
2018-12-16T20:19:29.959Z,99985.95
2018-12-16T20:24:34.393Z,99983.69
2018-12-16T20:29:39.150Z,99991.30
2018-12-16T20:34:43.305Z,99991.65
2018-12-16T20:39:47.966Z,99995.63
2018-12-16T20:44:52.583Z,100002.31
2018-12-16T20:50:02.223Z,100000.16
2018-12-16T20:55:07.136Z,100008.36
2018-12-16T21:00:12.865Z,100006.41
2018-12-16T21:05:17.259Z,100006.53
2018-12-16T21:10:21.616Z,100002.84
2018-12-16T21:15:31.292Z,100005.98
2018-12-16T21:20:35.504Z,100007.47
2018-12-16T21:25:39.937Z,100001.65
2018-12-16T21:30:44.335Z,100006.94
2018-12-16T21:35:50.644Z,100016.94
2018-12-16T21:40:57.637Z,100014.79
2018-12-16T21:46:02.274Z,100020.20
2018-12-16T21:51:07.706Z,100013.02
2018-12-16T21:56:12.105Z,100028.45
2018-12-16T22:01:16.452Z,100023.60
2018-12-16T22:06:23.552Z,100020.92
2018-12-16T22:11:27.826Z,100019.56
2018-12-16T22:16:33.975Z,100021.16
2018-12-16T22:21:39.424Z,100024.06
2018-12-16T22:26:44.027Z,100017.81
2018-12-16T22:31:49.032Z,100025.38
2018-12-16T22:36:53.364Z,100034.36
2018-12-16T22:41:59.526Z,100040.47
2018-12-16T22:47:04.896Z,100046.66
2018-12-16T22:52:09.217Z,100052.25
2018-12-16T22:57:14.294Z,100053.76
2018-12-16T23:02:19.329Z,100054.22
2018-12-16T23:07:23.954Z,100055.88
2018-12-16T23:12:30.668Z,100062.08
2018-12-16T23:17:35.552Z,100062.55
2018-12-16T23:27:59.419Z,100061.17
2018-12-16T23:38:20.470Z,100080.40
2018-12-16T23:43:25.820Z,100088.13
2018-12-16T23:48:30.349Z,100080.98
2018-12-16T23:53:34.641Z,100090.31
2018-12-16T23:58:48.215Z,100096.33
